sensor_id;sensor_type;location;lat;lon;timestamp;temperature;humidity
5226;DHT22;2632;51.666;7.146;2022-10-15T00:01:19;16.60;91.60
5226;DHT22;2632;51.666;7.146;2022-10-15T00:03:47;16.60;91.60
5226;DHT22;2632;51.666;7.146;2022-10-15T00:06:17;16.60;91.60
5226;DHT22;2632;51.666;7.146;2022-10-15T00:08:45;16.60;91.60
5226;DHT22;2632;51.666;7.146;2022-10-15T00:11:17;16.50;91.50
5226;DHT22;2632;51.666;7.146;2022-10-15T00:13:44;16.60;91.60
5226;DHT22;2632;51.666;7.146;2022-10-15T00:16:14;16.60;91.50
5226;DHT22;2632;51.666;7.146;2022-10-15T00:18:41;16.60;91.50
5226;DHT22;2632;51.666;7.146;2022-10-15T00:21:10;16.50;91.50
5226;DHT22;2632;51.666;7.146;2022-10-15T00:23:37;16.50;91.50
5226;DHT22;2632;51.666;7.146;2022-10-15T00:26:12;16.60;91.50
5226;DHT22;2632;51.666;7.146;2022-10-15T00:28:39;16.60;91.50
5226;DHT22;2632;51.666;7.146;2022-10-15T00:31:12;16.50;91.50
5226;DHT22;2632;51.666;7.146;2022-10-15T00:33:39;16.60;91.50
5226;DHT22;2632;51.666;7.146;2022-10-15T00:36:17;16.60;91.50
5226;DHT22;2632;51.666;7.146;2022-10-15T00:38:45;16.60;91.50
5226;DHT22;2632;51.666;7.146;2022-10-15T00:46:56;16.60;91.50
5226;DHT22;2632;51.666;7.146;2022-10-15T00:49:30;16.60;91.20
5226;DHT22;2632;51.666;7.146;2022-10-15T00:52:11;16.60;91.20
5226;DHT22;2632;51.666;7.146;2022-10-15T00:54:46;16.60;91.20
5226;DHT22;2632;51.666;7.146;2022-10-15T00:57:13;16.50;91.20
5226;DHT22;2632;51.666;7.146;2022-10-15T00:59:43;16.50;91.20
5226;DHT22;2632;51.666;7.146;2022-10-15T01:02:12;16.50;91.10
5226;DHT22;2632;51.666;7.146;2022-10-15T01:04:40;16.50;91.10
5226;DHT22;2632;51.666;7.146;2022-10-15T01:07:07;16.60;91.20
5226;DHT22;2632;51.666;7.146;2022-10-15T01:09:34;16.50;91.10
5226;DHT22;2632;51.666;7.146;2022-10-15T01:12:01;16.60;91.20
5226;DHT22;2632;51.666;7.146;2022-10-15T01:14:51;16.50;91.40
5226;DHT22;2632;51.666;7.146;2022-10-15T01:17:27;16.50;91.10
5226;DHT22;2632;51.666;7.146;2022-10-15T01:25:48;16.50;91.10
5226;DHT22;2632;51.666;7.146;2022-10-15T01:28:41;16.50;91.10
5226;DHT22;2632;51.666;7.146;2022-10-15T01:36:52;16.60;91.10
5226;DHT22;2632;51.666;7.146;2022-10-15T01:39:26;16.60;91.10
5226;DHT22;2632;51.666;7.146;2022-10-15T01:42:01;16.50;91.10
5226;DHT22;2632;51.666;7.146;2022-10-15T01:44:41;16.50;91.10
5226;DHT22;2632;51.666;7.146;2022-10-15T01:47:33;16.60;91.10
5226;DHT22;2632;51.666;7.146;2022-10-15T01:50:02;16.60;91.30
5226;DHT22;2632;51.666;7.146;2022-10-15T01:52:33;16.50;91.10
5226;DHT22;2632;51.666;7.146;2022-10-15T01:55:05;16.60;91.40
5226;DHT22;2632;51.666;7.146;2022-10-15T01:57:34;16.50;91.10
5226;DHT22;2632;51.666;7.146;2022-10-15T02:00:03;16.50;91.10
5226;DHT22;2632;51.666;7.146;2022-10-15T02:02:30;16.50;91.00
5226;DHT22;2632;51.666;7.146;2022-10-15T02:04:57;16.60;91.00
5226;DHT22;2632;51.666;7.146;2022-10-15T02:07:53;16.60;91.00
5226;DHT22;2632;51.666;7.146;2022-10-15T02:10:27;16.50;91.00
5226;DHT22;2632;51.666;7.146;2022-10-15T02:13:16;16.50;91.00
5226;DHT22;2632;51.666;7.146;2022-10-15T02:18:39;16.50;91.00
5226;DHT22;2632;51.666;7.146;2022-10-15T02:21:15;16.60;91.20
5226;DHT22;2632;51.666;7.146;2022-10-15T02:23:49;16.50;90.90
5226;DHT22;2632;51.666;7.146;2022-10-15T02:26:19;16.60;91.00
5226;DHT22;2632;51.666;7.146;2022-10-15T02:28:51;16.50;91.00
5226;DHT22;2632;51.666;7.146;2022-10-15T02:31:19;16.50;91.00
5226;DHT22;2632;51.666;7.146;2022-10-15T02:33:47;16.50;91.00
5226;DHT22;2632;51.666;7.146;2022-10-15T02:36:15;16.50;91.00
5226;DHT22;2632;51.666;7.146;2022-10-15T02:38:44;16.50;91.00
5226;DHT22;2632;51.666;7.146;2022-10-15T02:41:12;16.50;91.20
5226;DHT22;2632;51.666;7.146;2022-10-15T02:43:39;16.50;91.00
5226;DHT22;2632;51.666;7.146;2022-10-15T02:46:08;16.60;91.20
5226;DHT22;2632;51.666;7.146;2022-10-15T02:48:36;16.60;91.00
5226;DHT22;2632;51.666;7.146;2022-10-15T02:51:03;16.60;91.00
5226;DHT22;2632;51.666;7.146;2022-10-15T02:53:30;16.60;91.00
5226;DHT22;2632;51.666;7.146;2022-10-15T02:55:56;16.60;91.00
5226;DHT22;2632;51.666;7.146;2022-10-15T02:58:23;16.50;90.90
5226;DHT22;2632;51.666;7.146;2022-10-15T03:00:50;16.50;90.90
5226;DHT22;2632;51.666;7.146;2022-10-15T03:03:17;16.60;90.90
5226;DHT22;2632;51.666;7.146;2022-10-15T03:05:44;16.60;90.90
5226;DHT22;2632;51.666;7.146;2022-10-15T03:10:38;16.60;90.90
5226;DHT22;2632;51.666;7.146;2022-10-15T03:13:05;16.50;90.90
5226;DHT22;2632;51.666;7.146;2022-10-15T03:15:32;16.50;90.90
5226;DHT22;2632;51.666;7.146;2022-10-15T03:17:59;16.50;90.90
5226;DHT22;2632;51.666;7.146;2022-10-15T03:20:25;16.50;90.90
5226;DHT22;2632;51.666;7.146;2022-10-15T03:22:52;16.50;90.90
5226;DHT22;2632;51.666;7.146;2022-10-15T03:25:19;16.50;90.90
5226;DHT22;2632;51.666;7.146;2022-10-15T03:27:46;16.50;90.90
5226;DHT22;2632;51.666;7.146;2022-10-15T03:30:13;16.50;90.90
5226;DHT22;2632;51.666;7.146;2022-10-15T03:32:39;16.50;90.90
5226;DHT22;2632;51.666;7.146;2022-10-15T03:37:33;16.50;90.90
5226;DHT22;2632;51.666;7.146;2022-10-15T03:40:00;16.50;90.90
5226;DHT22;2632;51.666;7.146;2022-10-15T03:42:27;16.50;90.90
5226;DHT22;2632;51.666;7.146;2022-10-15T03:44:53;16.50;90.90
5226;DHT22;2632;51.666;7.146;2022-10-15T03:47:20;16.50;90.90
5226;DHT22;2632;51.666;7.146;2022-10-15T03:49:46;16.50;90.90
5226;DHT22;2632;51.666;7.146;2022-10-15T03:52:13;16.50;90.90
5226;DHT22;2632;51.666;7.146;2022-10-15T03:57:07;16.50;90.90
5226;DHT22;2632;51.666;7.146;2022-10-15T03:59:33;16.50;90.90
5226;DHT22;2632;51.666;7.146;2022-10-15T04:02:00;16.50;90.90
5226;DHT22;2632;51.666;7.146;2022-10-15T04:04:26;16.50;90.90
5226;DHT22;2632;51.666;7.146;2022-10-15T04:06:53;16.50;90.90
5226;DHT22;2632;51.666;7.146;2022-10-15T04:09:20;16.50;90.90
5226;DHT22;2632;51.666;7.146;2022-10-15T04:14:13;16.50;90.90
5226;DHT22;2632;51.666;7.146;2022-10-15T04:16:40;16.50;91.10
5226;DHT22;2632;51.666;7.146;2022-10-15T04:19:06;16.50;90.90
5226;DHT22;2632;51.666;7.146;2022-10-15T04:21:36;16.50;90.90
5226;DHT22;2632;51.666;7.146;2022-10-15T04:24:03;16.50;90.90
5226;DHT22;2632;51.666;7.146;2022-10-15T04:26:29;16.50;90.80
5226;DHT22;2632;51.666;7.146;2022-10-15T04:31:23;16.50;90.80
5226;DHT22;2632;51.666;7.146;2022-10-15T04:33:50;16.50;90.80
5226;DHT22;2632;51.666;7.146;2022-10-15T04:36:16;16.50;90.90
5226;DHT22;2632;51.666;7.146;2022-10-15T04:38:48;16.50;90.90
5226;DHT22;2632;51.666;7.146;2022-10-15T04:41:15;16.50;91.10
5226;DHT22;2632;51.666;7.146;2022-10-15T04:43:41;16.50;91.10
5226;DHT22;2632;51.666;7.146;2022-10-15T04:46:08;16.50;90.90
5226;DHT22;2632;51.666;7.146;2022-10-15T04:48:37;16.50;90.90
5226;DHT22;2632;51.666;7.146;2022-10-15T04:51:19;16.50;91.10
5226;DHT22;2632;51.666;7.146;2022-10-15T04:53:46;16.50;90.80
5226;DHT22;2632;51.666;7.146;2022-10-15T04:56:15;16.50;91.10
5226;DHT22;2632;51.666;7.146;2022-10-15T04:58:44;16.50;90.80
5226;DHT22;2632;51.666;7.146;2022-10-15T05:01:14;16.50;90.80
5226;DHT22;2632;51.666;7.146;2022-10-15T05:03:43;16.50;91.10
5226;DHT22;2632;51.666;7.146;2022-10-15T05:06:13;16.50;90.80
5226;DHT22;2632;51.666;7.146;2022-10-15T05:08:41;16.50;90.80
5226;DHT22;2632;51.666;7.146;2022-10-15T05:11:18;16.50;90.80
5226;DHT22;2632;51.666;7.146;2022-10-15T05:13:45;16.50;90.80
5226;DHT22;2632;51.666;7.146;2022-10-15T05:16:22;16.50;90.80
5226;DHT22;2632;51.666;7.146;2022-10-15T05:18:54;16.50;90.80
5226;DHT22;2632;51.666;7.146;2022-10-15T05:21:22;16.50;90.80
5226;DHT22;2632;51.666;7.146;2022-10-15T05:23:49;16.50;91.10
5226;DHT22;2632;51.666;7.146;2022-10-15T05:26:21;16.50;90.80
5226;DHT22;2632;51.666;7.146;2022-10-15T05:28:48;16.50;90.80
5226;DHT22;2632;51.666;7.146;2022-10-15T05:31:23;16.30;92.70
5226;DHT22;2632;51.666;7.146;2022-10-15T05:33:51;16.10;93.50
5226;DHT22;2632;51.666;7.146;2022-10-15T05:36:24;16.10;93.70
5226;DHT22;2632;51.666;7.146;2022-10-15T05:38:53;15.70;94.20
5226;DHT22;2632;51.666;7.146;2022-10-15T05:41:21;15.90;93.60
5226;DHT22;2632;51.666;7.146;2022-10-15T05:43:48;15.90;93.90
5226;DHT22;2632;51.666;7.146;2022-10-15T05:46:16;16.20;92.50
5226;DHT22;2632;51.666;7.146;2022-10-15T05:48:47;16.20;92.70
5226;DHT22;2632;51.666;7.146;2022-10-15T05:51:15;16.30;92.10
5226;DHT22;2632;51.666;7.146;2022-10-15T05:53:42;16.30;92.30
5226;DHT22;2632;51.666;7.146;2022-10-15T05:56:14;16.40;91.90
5226;DHT22;2632;51.666;7.146;2022-10-15T06:01:11;16.40;91.70
5226;DHT22;2632;51.666;7.146;2022-10-15T06:03:41;16.40;91.70
5226;DHT22;2632;51.666;7.146;2022-10-15T06:06:19;16.40;91.60
5226;DHT22;2632;51.666;7.146;2022-10-15T06:08:47;16.40;91.60
5226;DHT22;2632;51.666;7.146;2022-10-15T06:11:14;16.40;91.50
5226;DHT22;2632;51.666;7.146;2022-10-15T06:13:42;16.40;91.80
5226;DHT22;2632;51.666;7.146;2022-10-15T06:16:10;16.40;91.50
5226;DHT22;2632;51.666;7.146;2022-10-15T06:18:37;16.40;91.50
5226;DHT22;2632;51.666;7.146;2022-10-15T06:21:05;16.50;91.50
5226;DHT22;2632;51.666;7.146;2022-10-15T06:23:32;16.40;91.40
5226;DHT22;2632;51.666;7.146;2022-10-15T06:26:04;16.50;91.40
5226;DHT22;2632;51.666;7.146;2022-10-15T06:28:31;16.50;91.40
5226;DHT22;2632;51.666;7.146;2022-10-15T06:30:59;16.50;91.40
5226;DHT22;2632;51.666;7.146;2022-10-15T06:33:26;16.50;91.40
5226;DHT22;2632;51.666;7.146;2022-10-15T06:35:54;16.50;91.40
5226;DHT22;2632;51.666;7.146;2022-10-15T06:38:20;16.50;91.40
5226;DHT22;2632;51.666;7.146;2022-10-15T06:40:47;16.50;91.30
5226;DHT22;2632;51.666;7.146;2022-10-15T06:43:13;16.50;91.30
5226;DHT22;2632;51.666;7.146;2022-10-15T06:45:40;16.50;91.30
5226;DHT22;2632;51.666;7.146;2022-10-15T06:48:08;16.50;91.60
5226;DHT22;2632;51.666;7.146;2022-10-15T06:50:36;16.40;91.60
5226;DHT22;2632;51.666;7.146;2022-10-15T06:53:03;16.50;91.30
5226;DHT22;2632;51.666;7.146;2022-10-15T06:55:30;16.50;91.60
5226;DHT22;2632;51.666;7.146;2022-10-15T06:57:57;16.50;91.30
5226;DHT22;2632;51.666;7.146;2022-10-15T07:00:24;16.40;91.50
5226;DHT22;2632;51.666;7.146;2022-10-15T07:02:51;16.50;91.50
5226;DHT22;2632;51.666;7.146;2022-10-15T07:05:18;16.50;91.50
5226;DHT22;2632;51.666;7.146;2022-10-15T07:07:55;16.50;91.50
5226;DHT22;2632;51.666;7.146;2022-10-15T07:10:22;16.40;91.50
5226;DHT22;2632;51.666;7.146;2022-10-15T07:12:51;16.40;91.50
5226;DHT22;2632;51.666;7.146;2022-10-15T07:15:19;16.40;91.50
5226;DHT22;2632;51.666;7.146;2022-10-15T07:17:51;16.40;91.50
5226;DHT22;2632;51.666;7.146;2022-10-15T07:20:18;16.40;91.50
5226;DHT22;2632;51.666;7.146;2022-10-15T07:22:49;16.40;91.50
5226;DHT22;2632;51.666;7.146;2022-10-15T07:25:16;16.40;92.30
5226;DHT22;2632;51.666;7.146;2022-10-15T07:27:43;16.20;93.60
5226;DHT22;2632;51.666;7.146;2022-10-15T07:30:10;15.90;93.90
5226;DHT22;2632;51.666;7.146;2022-10-15T07:32:36;15.90;94.20
5226;DHT22;2632;51.666;7.146;2022-10-15T07:35:03;15.90;94.50
5226;DHT22;2632;51.666;7.146;2022-10-15T07:37:30;15.80;94.50
5226;DHT22;2632;51.666;7.146;2022-10-15T07:39:57;15.80;95.10
5226;DHT22;2632;51.666;7.146;2022-10-15T07:42:24;15.70;95.30
5226;DHT22;2632;51.666;7.146;2022-10-15T07:44:50;15.70;94.90
5226;DHT22;2632;51.666;7.146;2022-10-15T07:47:17;15.70;95.20
5226;DHT22;2632;51.666;7.146;2022-10-15T07:49:44;15.70;95.00
5226;DHT22;2632;51.666;7.146;2022-10-15T07:52:10;15.80;95.30
5226;DHT22;2632;51.666;7.146;2022-10-15T07:54:37;15.80;95.30
5226;DHT22;2632;51.666;7.146;2022-10-15T07:57:03;15.80;95.20
5226;DHT22;2632;51.666;7.146;2022-10-15T07:59:33;15.80;95.40
5226;DHT22;2632;51.666;7.146;2022-10-15T08:02:00;15.90;95.40
5226;DHT22;2632;51.666;7.146;2022-10-15T08:04:27;15.90;95.70
5226;DHT22;2632;51.666;7.146;2022-10-15T08:06:53;15.90;95.60
5226;DHT22;2632;51.666;7.146;2022-10-15T08:09:20;15.90;95.70
5226;DHT22;2632;51.666;7.146;2022-10-15T08:11:47;15.90;95.90
5226;DHT22;2632;51.666;7.146;2022-10-15T08:14:13;16.00;95.70
5226;DHT22;2632;51.666;7.146;2022-10-15T08:16:40;15.90;95.80
5226;DHT22;2632;51.666;7.146;2022-10-15T08:19:06;16.00;94.80
5226;DHT22;2632;51.666;7.146;2022-10-15T08:21:33;16.10;95.00
5226;DHT22;2632;51.666;7.146;2022-10-15T08:23:59;16.20;94.70
5226;DHT22;2632;51.666;7.146;2022-10-15T08:26:26;16.30;94.40
5226;DHT22;2632;51.666;7.146;2022-10-15T08:28:53;16.40;94.20
5226;DHT22;2632;51.666;7.146;2022-10-15T08:31:19;16.40;94.00
5226;DHT22;2632;51.666;7.146;2022-10-15T08:33:46;16.60;94.10
5226;DHT22;2632;51.666;7.146;2022-10-15T08:36:14;16.60;93.50
5226;DHT22;2632;51.666;7.146;2022-10-15T08:38:40;16.50;93.40
5226;DHT22;2632;51.666;7.146;2022-10-15T08:43:48;16.60;93.50
5226;DHT22;2632;51.666;7.146;2022-10-15T08:46:22;16.60;93.20
5226;DHT22;2632;51.666;7.146;2022-10-15T08:48:53;16.60;93.50
5226;DHT22;2632;51.666;7.146;2022-10-15T08:51:24;16.60;93.10
5226;DHT22;2632;51.666;7.146;2022-10-15T08:54:02;16.60;93.30
5226;DHT22;2632;51.666;7.146;2022-10-15T08:56:38;16.60;93.30
5226;DHT22;2632;51.666;7.146;2022-10-15T08:59:35;16.60;93.00
5226;DHT22;2632;51.666;7.146;2022-10-15T09:02:25;16.60;93.20
5226;DHT22;2632;51.666;7.146;2022-10-15T09:05:13;16.60;93.20
5226;DHT22;2632;51.666;7.146;2022-10-15T09:07:48;16.60;93.20
5226;DHT22;2632;51.666;7.146;2022-10-15T09:18:37;16.70;93.00
5226;DHT22;2632;51.666;7.146;2022-10-15T09:21:07;16.70;93.00
5226;DHT22;2632;51.666;7.146;2022-10-15T09:23:35;16.70;92.70
5226;DHT22;2632;51.666;7.146;2022-10-15T09:28:56;16.70;92.90
5226;DHT22;2632;51.666;7.146;2022-10-15T09:31:32;16.70;92.90
5226;DHT22;2632;51.666;7.146;2022-10-15T09:34:05;16.70;92.90
5226;DHT22;2632;51.666;7.146;2022-10-15T09:36:47;16.70;92.90
5226;DHT22;2632;51.666;7.146;2022-10-15T09:44:37;16.70;92.90
5226;DHT22;2632;51.666;7.146;2022-10-15T09:47:16;16.70;92.90
5226;DHT22;2632;51.666;7.146;2022-10-15T09:49:43;16.70;92.60
5226;DHT22;2632;51.666;7.146;2022-10-15T09:52:28;16.70;92.60
5226;DHT22;2632;51.666;7.146;2022-10-15T09:55:22;16.70;92.80
5226;DHT22;2632;51.666;7.146;2022-10-15T09:57:58;16.80;92.80
5226;DHT22;2632;51.666;7.146;2022-10-15T10:03:16;16.80;93.10
5226;DHT22;2632;51.666;7.146;2022-10-15T10:05:43;16.80;92.80
5226;DHT22;2632;51.666;7.146;2022-10-15T10:08:20;16.90;92.90
5226;DHT22;2632;51.666;7.146;2022-10-15T10:10:56;16.90;93.00
5226;DHT22;2632;51.666;7.146;2022-10-15T10:13:29;16.90;92.90
5226;DHT22;2632;51.666;7.146;2022-10-15T10:16:05;16.90;93.00
5226;DHT22;2632;51.666;7.146;2022-10-15T10:18:32;17.00;92.90
5226;DHT22;2632;51.666;7.146;2022-10-15T10:21:01;17.00;92.90
5226;DHT22;2632;51.666;7.146;2022-10-15T10:23:33;17.00;92.90
5226;DHT22;2632;51.666;7.146;2022-10-15T10:26:05;17.00;92.80
5226;DHT22;2632;51.666;7.146;2022-10-15T10:28:49;17.00;92.90
5226;DHT22;2632;51.666;7.146;2022-10-15T10:31:31;16.90;92.90
5226;DHT22;2632;51.666;7.146;2022-10-15T10:34:00;16.90;93.00
5226;DHT22;2632;51.666;7.146;2022-10-15T10:36:30;16.90;93.10
5226;DHT22;2632;51.666;7.146;2022-10-15T10:44:21;16.90;93.10
5226;DHT22;2632;51.666;7.146;2022-10-15T10:49:57;16.90;93.00
5226;DHT22;2632;51.666;7.146;2022-10-15T10:52:35;16.90;93.00
5226;DHT22;2632;51.666;7.146;2022-10-15T10:55:19;16.90;93.00
5226;DHT22;2632;51.666;7.146;2022-10-15T11:00:29;16.90;93.10
5226;DHT22;2632;51.666;7.146;2022-10-15T11:02:57;16.90;93.00
5226;DHT22;2632;51.666;7.146;2022-10-15T11:05:30;17.00;92.90
5226;DHT22;2632;51.666;7.146;2022-10-15T11:13:42;16.90;92.80
5226;DHT22;2632;51.666;7.146;2022-10-15T11:16:14;16.90;92.80
5226;DHT22;2632;51.666;7.146;2022-10-15T11:21:34;16.80;92.70
5226;DHT22;2632;51.666;7.146;2022-10-15T11:35:48;16.80;92.80
5226;DHT22;2632;51.666;7.146;2022-10-15T11:47:37;16.80;92.60
5226;DHT22;2632;51.666;7.146;2022-10-15T11:50:34;16.80;92.80
5226;DHT22;2632;51.666;7.146;2022-10-15T11:56:25;16.80;92.60
5226;DHT22;2632;51.666;7.146;2022-10-15T11:58:58;16.80;92.60
5226;DHT22;2632;51.666;7.146;2022-10-15T12:01:37;16.80;92.80
5226;DHT22;2632;51.666;7.146;2022-10-15T12:04:15;16.80;92.60
5226;DHT22;2632;51.666;7.146;2022-10-15T12:06:47;16.80;92.90
5226;DHT22;2632;51.666;7.146;2022-10-15T12:09:21;16.80;92.80
5226;DHT22;2632;51.666;7.146;2022-10-15T12:11:59;16.80;92.80
5226;DHT22;2632;51.666;7.146;2022-10-15T12:17:50;16.80;92.80
5226;DHT22;2632;51.666;7.146;2022-10-15T12:20:20;16.80;92.80
5226;DHT22;2632;51.666;7.146;2022-10-15T12:22:56;16.80;92.80
5226;DHT22;2632;51.666;7.146;2022-10-15T12:25:39;16.80;92.70
5226;DHT22;2632;51.666;7.146;2022-10-15T12:28:21;16.80;92.70
5226;DHT22;2632;51.666;7.146;2022-10-15T12:31:02;16.80;92.70
5226;DHT22;2632;51.666;7.146;2022-10-15T12:33:36;16.80;93.00
5226;DHT22;2632;51.666;7.146;2022-10-15T12:36:20;16.70;92.70
5226;DHT22;2632;51.666;7.146;2022-10-15T12:38:59;16.80;92.90
5226;DHT22;2632;51.666;7.146;2022-10-15T12:41:45;16.80;92.80
5226;DHT22;2632;51.666;7.146;2022-10-15T12:44:28;16.80;92.70
5226;DHT22;2632;51.666;7.146;2022-10-15T12:46:56;16.80;92.60
5226;DHT22;2632;51.666;7.146;2022-10-15T12:51:57;16.70;92.30
5226;DHT22;2632;51.666;7.146;2022-10-15T12:54:45;16.70;92.60
5226;DHT22;2632;51.666;7.146;2022-10-15T12:59:58;16.70;92.40
5226;DHT22;2632;51.666;7.146;2022-10-15T13:02:38;16.70;92.60
5226;DHT22;2632;51.666;7.146;2022-10-15T13:07:54;16.70;92.40
5226;DHT22;2632;51.666;7.146;2022-10-15T13:10:39;16.70;92.40
5226;DHT22;2632;51.666;7.146;2022-10-15T13:13:13;16.80;92.40
5226;DHT22;2632;51.666;7.146;2022-10-15T13:15:40;16.70;92.30
5226;DHT22;2632;51.666;7.146;2022-10-15T13:18:10;16.70;92.30
5226;DHT22;2632;51.666;7.146;2022-10-15T13:20:40;16.70;92.30
5226;DHT22;2632;51.666;7.146;2022-10-15T13:23:20;16.70;92.30
5226;DHT22;2632;51.666;7.146;2022-10-15T13:26:23;16.70;92.40
5226;DHT22;2632;51.666;7.146;2022-10-15T13:28:56;16.70;92.30
5226;DHT22;2632;51.666;7.146;2022-10-15T13:31:29;16.70;92.40
5226;DHT22;2632;51.666;7.146;2022-10-15T13:34:26;16.70;92.30
5226;DHT22;2632;51.666;7.146;2022-10-15T13:36:54;16.70;92.30
5226;DHT22;2632;51.666;7.146;2022-10-15T13:41:51;16.70;92.30
5226;DHT22;2632;51.666;7.146;2022-10-15T13:44:23;16.70;92.30
5226;DHT22;2632;51.666;7.146;2022-10-15T13:46:50;16.70;92.30
5226;DHT22;2632;51.666;7.146;2022-10-15T13:49:17;16.70;92.30
5226;DHT22;2632;51.666;7.146;2022-10-15T13:51:47;16.70;92.30
5226;DHT22;2632;51.666;7.146;2022-10-15T13:54:19;16.70;92.30
5226;DHT22;2632;51.666;7.146;2022-10-15T13:56:55;16.70;92.30
5226;DHT22;2632;51.666;7.146;2022-10-15T13:59:24;16.70;92.40
5226;DHT22;2632;51.666;7.146;2022-10-15T14:01:55;16.70;92.30
5226;DHT22;2632;51.666;7.146;2022-10-15T14:04:29;16.70;92.40
5226;DHT22;2632;51.666;7.146;2022-10-15T14:07:01;16.70;92.30
5226;DHT22;2632;51.666;7.146;2022-10-15T14:09:34;16.80;92.40
5226;DHT22;2632;51.666;7.146;2022-10-15T14:12:07;16.70;92.40
5226;DHT22;2632;51.666;7.146;2022-10-15T14:14:42;16.70;92.60
5226;DHT22;2632;51.666;7.146;2022-10-15T14:17:19;16.80;92.40
5226;DHT22;2632;51.666;7.146;2022-10-15T14:19:55;16.80;92.40
5226;DHT22;2632;51.666;7.146;2022-10-15T14:22:47;16.70;92.30
5226;DHT22;2632;51.666;7.146;2022-10-15T14:25:21;16.80;92.40
5226;DHT22;2632;51.666;7.146;2022-10-15T14:27:48;16.70;92.40
5226;DHT22;2632;51.666;7.146;2022-10-15T14:30:24;16.70;92.40
5226;DHT22;2632;51.666;7.146;2022-10-15T14:32:52;16.70;92.40
5226;DHT22;2632;51.666;7.146;2022-10-15T14:35:31;16.70;92.40
5226;DHT22;2632;51.666;7.146;2022-10-15T14:38:13;16.70;92.60
5226;DHT22;2632;51.666;7.146;2022-10-15T14:40:40;16.70;92.40
5226;DHT22;2632;51.666;7.146;2022-10-15T14:43:15;16.70;92.40
5226;DHT22;2632;51.666;7.146;2022-10-15T14:48:15;16.70;92.40
5226;DHT22;2632;51.666;7.146;2022-10-15T14:50:44;16.70;92.40
5226;DHT22;2632;51.666;7.146;2022-10-15T14:53:16;16.70;92.40
5226;DHT22;2632;51.666;7.146;2022-10-15T14:56:06;16.70;92.40
5226;DHT22;2632;51.666;7.146;2022-10-15T14:58:36;16.70;92.40
5226;DHT22;2632;51.666;7.146;2022-10-15T15:01:06;16.70;92.40
5226;DHT22;2632;51.666;7.146;2022-10-15T15:03:48;16.70;92.40
5226;DHT22;2632;51.666;7.146;2022-10-15T15:06:15;16.70;92.40
5226;DHT22;2632;51.666;7.146;2022-10-15T15:08:42;16.70;92.50
5226;DHT22;2632;51.666;7.146;2022-10-15T15:11:12;16.70;92.50
5226;DHT22;2632;51.666;7.146;2022-10-15T15:13:42;16.70;92.50
5226;DHT22;2632;51.666;7.146;2022-10-15T15:16:12;16.70;92.50
5226;DHT22;2632;51.666;7.146;2022-10-15T15:18:38;16.70;92.50
5226;DHT22;2632;51.666;7.146;2022-10-15T15:21:10;16.70;92.50
5226;DHT22;2632;51.666;7.146;2022-10-15T15:23:37;16.70;92.50
5226;DHT22;2632;51.666;7.146;2022-10-15T15:26:04;16.70;92.50
5226;DHT22;2632;51.666;7.146;2022-10-15T15:28:31;16.60;92.50
5226;DHT22;2632;51.666;7.146;2022-10-15T15:30:59;16.70;92.50
5226;DHT22;2632;51.666;7.146;2022-10-15T15:36:12;16.70;92.50
5226;DHT22;2632;51.666;7.146;2022-10-15T15:38:41;16.70;92.50
5226;DHT22;2632;51.666;7.146;2022-10-15T15:41:17;16.70;92.50
5226;DHT22;2632;51.666;7.146;2022-10-15T15:46:12;16.70;92.50
5226;DHT22;2632;51.666;7.146;2022-10-15T15:48:39;16.70;92.50
5226;DHT22;2632;51.666;7.146;2022-10-15T15:51:21;16.60;92.50
5226;DHT22;2632;51.666;7.146;2022-10-15T15:53:49;16.70;92.50
5226;DHT22;2632;51.666;7.146;2022-10-15T15:56:16;16.70;92.40
5226;DHT22;2632;51.666;7.146;2022-10-15T15:58:43;16.70;92.40
5226;DHT22;2632;51.666;7.146;2022-10-15T16:01:10;16.70;92.40
5226;DHT22;2632;51.666;7.146;2022-10-15T16:03:37;16.70;92.40
5226;DHT22;2632;51.666;7.146;2022-10-15T16:06:04;16.70;92.40
5226;DHT22;2632;51.666;7.146;2022-10-15T16:08:33;16.70;92.40
5226;DHT22;2632;51.666;7.146;2022-10-15T16:11:02;16.70;92.50
5226;DHT22;2632;51.666;7.146;2022-10-15T16:13:29;16.60;92.40
5226;DHT22;2632;51.666;7.146;2022-10-15T16:15:56;16.70;92.50
5226;DHT22;2632;51.666;7.146;2022-10-15T16:18:22;16.70;92.50
5226;DHT22;2632;51.666;7.146;2022-10-15T16:20:49;16.70;92.50
5226;DHT22;2632;51.666;7.146;2022-10-15T16:23:16;16.70;92.50
5226;DHT22;2632;51.666;7.146;2022-10-15T16:25:43;16.70;92.50
5226;DHT22;2632;51.666;7.146;2022-10-15T16:28:09;16.70;92.50
5226;DHT22;2632;51.666;7.146;2022-10-15T16:30:36;16.70;92.70
5226;DHT22;2632;51.666;7.146;2022-10-15T16:33:03;16.70;92.50
5226;DHT22;2632;51.666;7.146;2022-10-15T16:38:04;16.70;92.60
5226;DHT22;2632;51.666;7.146;2022-10-15T16:40:30;16.70;92.60
5226;DHT22;2632;51.666;7.146;2022-10-15T16:42:57;16.70;92.60
5226;DHT22;2632;51.666;7.146;2022-10-15T16:45:24;16.70;92.60
5226;DHT22;2632;51.666;7.146;2022-10-15T16:47:50;16.70;92.70
5226;DHT22;2632;51.666;7.146;2022-10-15T16:50:17;16.70;92.70
5226;DHT22;2632;51.666;7.146;2022-10-15T16:52:43;16.70;92.70
5226;DHT22;2632;51.666;7.146;2022-10-15T16:55:10;16.70;92.70
5226;DHT22;2632;51.666;7.146;2022-10-15T16:57:37;16.70;92.70
5226;DHT22;2632;51.666;7.146;2022-10-15T17:00:04;16.70;92.70
5226;DHT22;2632;51.666;7.146;2022-10-15T17:02:31;16.70;92.70
5226;DHT22;2632;51.666;7.146;2022-10-15T17:04:57;16.70;92.60
5226;DHT22;2632;51.666;7.146;2022-10-15T17:07:24;16.70;92.60
5226;DHT22;2632;51.666;7.146;2022-10-15T17:09:51;16.70;92.60
5226;DHT22;2632;51.666;7.146;2022-10-15T17:12:17;16.70;92.60
5226;DHT22;2632;51.666;7.146;2022-10-15T17:14:48;16.70;92.50
5226;DHT22;2632;51.666;7.146;2022-10-15T17:17:16;16.80;92.60
5226;DHT22;2632;51.666;7.146;2022-10-15T17:19:42;16.70;92.50
5226;DHT22;2632;51.666;7.146;2022-10-15T17:22:09;16.70;92.50
5226;DHT22;2632;51.666;7.146;2022-10-15T17:24:35;16.70;92.40
5226;DHT22;2632;51.666;7.146;2022-10-15T17:27:02;16.70;92.40
5226;DHT22;2632;51.666;7.146;2022-10-15T17:29:28;16.80;92.40
5226;DHT22;2632;51.666;7.146;2022-10-15T17:31:59;16.70;92.40
5226;DHT22;2632;51.666;7.146;2022-10-15T17:34:26;16.70;92.30
5226;DHT22;2632;51.666;7.146;2022-10-15T17:36:53;16.70;92.30
5226;DHT22;2632;51.666;7.146;2022-10-15T17:39:21;16.70;92.30
5226;DHT22;2632;51.666;7.146;2022-10-15T17:41:49;16.70;92.30
5226;DHT22;2632;51.666;7.146;2022-10-15T17:44:17;16.70;92.00
5226;DHT22;2632;51.666;7.146;2022-10-15T17:46:43;16.70;92.30
5226;DHT22;2632;51.666;7.146;2022-10-15T17:49:10;16.70;92.50
5226;DHT22;2632;51.666;7.146;2022-10-15T17:51:37;16.70;92.30
5226;DHT22;2632;51.666;7.146;2022-10-15T17:54:04;16.80;92.30
5226;DHT22;2632;51.666;7.146;2022-10-15T17:56:33;16.80;92.40
5226;DHT22;2632;51.666;7.146;2022-10-15T17:59:02;16.80;92.30
5226;DHT22;2632;51.666;7.146;2022-10-15T18:01:32;16.90;92.30
5226;DHT22;2632;51.666;7.146;2022-10-15T18:04:19;16.80;92.30
5226;DHT22;2632;51.666;7.146;2022-10-15T18:06:46;16.80;92.30
5226;DHT22;2632;51.666;7.146;2022-10-15T18:09:12;16.80;92.30
5226;DHT22;2632;51.666;7.146;2022-10-15T18:11:39;16.90;92.30
5226;DHT22;2632;51.666;7.146;2022-10-15T18:14:05;16.80;92.40
5226;DHT22;2632;51.666;7.146;2022-10-15T18:21:26;16.80;92.40
5226;DHT22;2632;51.666;7.146;2022-10-15T18:26:24;16.90;92.40
5226;DHT22;2632;51.666;7.146;2022-10-15T18:28:52;16.90;92.40
5226;DHT22;2632;51.666;7.146;2022-10-15T18:31:19;16.80;92.40
5226;DHT22;2632;51.666;7.146;2022-10-15T18:33:48;16.70;92.40
5226;DHT22;2632;51.666;7.146;2022-10-15T18:36:20;16.80;92.50